sensor_id;sensor_type;location;lat;lon;timestamp;P1;durP1;ratioP1;P2;durP2;ratioP2
24151;SDS011;12311;50.866;4.332;2022-12-16T00:00:12;19.25;;;7.55;;
24151;SDS011;12311;50.866;4.332;2022-12-16T00:02:39;17.60;;;8.95;;
24151;SDS011;12311;50.866;4.332;2022-12-16T00:05:06;15.90;;;8.32;;
24151;SDS011;12311;50.866;4.332;2022-12-16T00:07:32;19.27;;;8.77;;
24151;SDS011;12311;50.866;4.332;2022-12-16T00:09:58;16.50;;;9.10;;
24151;SDS011;12311;50.866;4.332;2022-12-16T00:12:23;18.15;;;9.95;;
24151;SDS011;12311;50.866;4.332;2022-12-16T00:14:49;20.58;;;9.98;;
24151;SDS011;12311;50.866;4.332;2022-12-16T00:17:15;21.60;;;9.35;;
24151;SDS011;12311;50.866;4.332;2022-12-16T00:19:40;22.98;;;10.00;;
24151;SDS011;12311;50.866;4.332;2022-12-16T00:22:06;27.73;;;9.70;;
24151;SDS011;12311;50.866;4.332;2022-12-16T00:24:32;15.63;;;8.65;;
24151;SDS011;12311;50.866;4.332;2022-12-16T00:26:57;20.90;;;9.63;;
24151;SDS011;12311;50.866;4.332;2022-12-16T00:29:23;14.77;;;7.70;;
24151;SDS011;12311;50.866;4.332;2022-12-16T00:31:49;17.85;;;8.32;;
24151;SDS011;12311;50.866;4.332;2022-12-16T00:34:15;26.15;;;10.68;;
24151;SDS011;12311;50.866;4.332;2022-12-16T00:36:41;16.10;;;8.10;;
24151;SDS011;12311;50.866;4.332;2022-12-16T00:39:08;14.60;;;7.25;;
24151;SDS011;12311;50.866;4.332;2022-12-16T00:41:36;16.35;;;8.35;;
24151;SDS011;12311;50.866;4.332;2022-12-16T00:44:02;14.77;;;7.63;;
24151;SDS011;12311;50.866;4.332;2022-12-16T00:46:28;19.63;;;9.13;;
24151;SDS011;12311;50.866;4.332;2022-12-16T00:48:54;14.13;;;7.20;;
24151;SDS011;12311;50.866;4.332;2022-12-16T00:51:19;21.33;;;10.00;;
24151;SDS011;12311;50.866;4.332;2022-12-16T00:53:45;9.45;;;7.32;;
24151;SDS011;12311;50.866;4.332;2022-12-16T00:56:11;22.58;;;8.57;;
24151;SDS011;12311;50.866;4.332;2022-12-16T00:58:39;23.05;;;9.70;;
24151;SDS011;12311;50.866;4.332;2022-12-16T01:01:05;17.35;;;9.55;;
24151;SDS011;12311;50.866;4.332;2022-12-16T01:03:32;13.50;;;7.60;;
24151;SDS011;12311;50.866;4.332;2022-12-16T01:05:58;11.77;;;7.95;;
24151;SDS011;12311;50.866;4.332;2022-12-16T01:08:24;15.75;;;8.73;;
24151;SDS011;12311;50.866;4.332;2022-12-16T01:10:50;11.38;;;7.03;;
24151;SDS011;12311;50.866;4.332;2022-12-16T01:13:18;26.02;;;8.50;;
24151;SDS011;12311;50.866;4.332;2022-12-16T01:15:44;12.63;;;7.22;;
24151;SDS011;12311;50.866;4.332;2022-12-16T01:18:10;22.85;;;9.70;;
24151;SDS011;12311;50.866;4.332;2022-12-16T01:20:35;18.52;;;8.05;;
24151;SDS011;12311;50.866;4.332;2022-12-16T01:23:02;28.73;;;9.35;;
24151;SDS011;12311;50.866;4.332;2022-12-16T01:25:28;20.23;;;9.32;;
24151;SDS011;12311;50.866;4.332;2022-12-16T01:27:54;29.23;;;7.93;;
24151;SDS011;12311;50.866;4.332;2022-12-16T01:30:19;16.85;;;8.00;;
24151;SDS011;12311;50.866;4.332;2022-12-16T01:32:45;23.58;;;10.73;;
24151;SDS011;12311;50.866;4.332;2022-12-16T01:35:10;20.92;;;10.35;;
24151;SDS011;12311;50.866;4.332;2022-12-16T01:37:37;21.95;;;9.88;;
24151;SDS011;12311;50.866;4.332;2022-12-16T01:40:03;13.93;;;7.05;;
24151;SDS011;12311;50.866;4.332;2022-12-16T01:42:29;34.25;;;8.75;;
24151;SDS011;12311;50.866;4.332;2022-12-16T01:45:14;19.60;;;8.27;;
24151;SDS011;12311;50.866;4.332;2022-12-16T01:47:49;21.38;;;8.43;;
24151;SDS011;12311;50.866;4.332;2022-12-16T01:50:21;14.55;;;8.75;;
24151;SDS011;12311;50.866;4.332;2022-12-16T01:52:48;19.52;;;7.78;;
24151;SDS011;12311;50.866;4.332;2022-12-16T01:55:30;15.07;;;8.18;;
24151;SDS011;12311;50.866;4.332;2022-12-16T02:00:37;17.55;;;8.45;;
24151;SDS011;12311;50.866;4.332;2022-12-16T02:03:05;14.73;;;8.25;;
24151;SDS011;12311;50.866;4.332;2022-12-16T02:05:36;11.35;;;7.22;;
24151;SDS011;12311;50.866;4.332;2022-12-16T02:10:53;13.82;;;8.55;;
24151;SDS011;12311;50.866;4.332;2022-12-16T02:16:05;13.25;;;6.68;;
24151;SDS011;12311;50.866;4.332;2022-12-16T02:24:00;18.08;;;8.88;;
24151;SDS011;12311;50.866;4.332;2022-12-16T02:37:37;16.88;;;8.35;;
24151;SDS011;12311;50.866;4.332;2022-12-16T02:40:37;19.25;;;10.23;;
24151;SDS011;12311;50.866;4.332;2022-12-16T02:46:04;16.05;;;8.07;;
24151;SDS011;12311;50.866;4.332;2022-12-16T02:48:31;14.93;;;8.05;;
24151;SDS011;12311;50.866;4.332;2022-12-16T02:50:57;16.80;;;7.47;;
24151;SDS011;12311;50.866;4.332;2022-12-16T02:53:23;15.30;;;8.00;;
24151;SDS011;12311;50.866;4.332;2022-12-16T03:01:22;18.98;;;9.23;;
24151;SDS011;12311;50.866;4.332;2022-12-16T03:04:21;13.93;;;6.95;;
24151;SDS011;12311;50.866;4.332;2022-12-16T03:07:29;18.98;;;8.65;;
24151;SDS011;12311;50.866;4.332;2022-12-16T03:09:57;14.85;;;7.88;;
24151;SDS011;12311;50.866;4.332;2022-12-16T03:12:25;15.18;;;6.40;;
24151;SDS011;12311;50.866;4.332;2022-12-16T03:14:51;13.30;;;7.25;;
24151;SDS011;12311;50.866;4.332;2022-12-16T03:17:19;12.60;;;7.03;;
24151;SDS011;12311;50.866;4.332;2022-12-16T03:19:55;22.67;;;8.52;;
24151;SDS011;12311;50.866;4.332;2022-12-16T03:22:30;22.23;;;8.27;;
24151;SDS011;12311;50.866;4.332;2022-12-16T03:24:58;18.80;;;8.20;;
24151;SDS011;12311;50.866;4.332;2022-12-16T03:30:05;21.25;;;8.82;;
24151;SDS011;12311;50.866;4.332;2022-12-16T03:37:43;17.25;;;7.93;;
24151;SDS011;12311;50.866;4.332;2022-12-16T03:40:13;18.35;;;6.20;;
24151;SDS011;12311;50.866;4.332;2022-12-16T03:42:40;10.90;;;6.03;;
24151;SDS011;12311;50.866;4.332;2022-12-16T03:45:07;23.10;;;8.65;;
24151;SDS011;12311;50.866;4.332;2022-12-16T03:47:38;21.70;;;8.52;;
24151;SDS011;12311;50.866;4.332;2022-12-16T03:50:04;20.98;;;7.57;;
24151;SDS011;12311;50.866;4.332;2022-12-16T03:52:30;12.07;;;5.97;;
24151;SDS011;12311;50.866;4.332;2022-12-16T03:54:56;20.33;;;7.30;;
24151;SDS011;12311;50.866;4.332;2022-12-16T03:57:22;13.55;;;6.78;;
24151;SDS011;12311;50.866;4.332;2022-12-16T03:59:48;19.35;;;7.00;;
24151;SDS011;12311;50.866;4.332;2022-12-16T04:02:13;15.30;;;6.80;;
24151;SDS011;12311;50.866;4.332;2022-12-16T04:04:39;36.92;;;8.10;;
24151;SDS011;12311;50.866;4.332;2022-12-16T04:07:05;16.17;;;7.95;;
24151;SDS011;12311;50.866;4.332;2022-12-16T04:09:45;25.73;;;8.30;;
24151;SDS011;12311;50.866;4.332;2022-12-16T04:12:15;16.42;;;8.10;;
24151;SDS011;12311;50.866;4.332;2022-12-16T04:15:00;13.75;;;7.20;;
24151;SDS011;12311;50.866;4.332;2022-12-16T04:18:04;18.20;;;6.60;;
24151;SDS011;12311;50.866;4.332;2022-12-16T04:20:53;11.90;;;5.88;;
24151;SDS011;12311;50.866;4.332;2022-12-16T04:23:42;28.83;;;8.32;;
24151;SDS011;12311;50.866;4.332;2022-12-16T04:26:33;13.20;;;5.95;;
24151;SDS011;12311;50.866;4.332;2022-12-16T04:29:21;21.02;;;6.38;;
24151;SDS011;12311;50.866;4.332;2022-12-16T04:31:47;17.75;;;7.45;;
24151;SDS011;12311;50.866;4.332;2022-12-16T04:34:14;14.25;;;6.78;;
24151;SDS011;12311;50.866;4.332;2022-12-16T04:36:53;18.48;;;6.85;;
24151;SDS011;12311;50.866;4.332;2022-12-16T04:39:39;19.98;;;8.13;;
24151;SDS011;12311;50.866;4.332;2022-12-16T04:42:23;25.13;;;8.15;;
24151;SDS011;12311;50.866;4.332;2022-12-16T04:45:08;13.85;;;5.88;;
24151;SDS011;12311;50.866;4.332;2022-12-16T04:47:52;14.32;;;7.10;;
24151;SDS011;12311;50.866;4.332;2022-12-16T04:50:37;12.15;;;6.30;;
24151;SDS011;12311;50.866;4.332;2022-12-16T04:53:22;23.75;;;6.43;;
24151;SDS011;12311;50.866;4.332;2022-12-16T04:56:07;18.30;;;6.13;;
24151;SDS011;12311;50.866;4.332;2022-12-16T04:58:51;17.45;;;6.97;;
24151;SDS011;12311;50.866;4.332;2022-12-16T05:01:35;17.40;;;8.98;;
24151;SDS011;12311;50.866;4.332;2022-12-16T05:04:19;14.75;;;8.20;;
24151;SDS011;12311;50.866;4.332;2022-12-16T05:07:03;17.20;;;6.55;;
24151;SDS011;12311;50.866;4.332;2022-12-16T05:09:47;17.77;;;8.10;;
24151;SDS011;12311;50.866;4.332;2022-12-16T05:12:31;17.27;;;6.75;;
24151;SDS011;12311;50.866;4.332;2022-12-16T05:15:15;14.40;;;6.60;;
24151;SDS011;12311;50.866;4.332;2022-12-16T05:18:06;14.02;;;6.53;;
24151;SDS011;12311;50.866;4.332;2022-12-16T05:20:52;27.25;;;8.02;;
24151;SDS011;12311;50.866;4.332;2022-12-16T05:23:36;22.65;;;9.77;;
24151;SDS011;12311;50.866;4.332;2022-12-16T05:26:20;13.75;;;7.68;;
24151;SDS011;12311;50.866;4.332;2022-12-16T05:29:04;16.85;;;7.25;;
24151;SDS011;12311;50.866;4.332;2022-12-16T05:31:48;20.20;;;8.38;;
24151;SDS011;12311;50.866;4.332;2022-12-16T05:34:32;20.80;;;8.52;;
24151;SDS011;12311;50.866;4.332;2022-12-16T05:37:16;14.95;;;6.97;;
24151;SDS011;12311;50.866;4.332;2022-12-16T05:39:59;18.33;;;7.80;;
24151;SDS011;12311;50.866;4.332;2022-12-16T05:42:44;21.50;;;7.88;;
24151;SDS011;12311;50.866;4.332;2022-12-16T05:45:30;18.52;;;6.88;;
24151;SDS011;12311;50.866;4.332;2022-12-16T05:48:14;13.82;;;7.20;;
24151;SDS011;12311;50.866;4.332;2022-12-16T05:50:58;12.35;;;7.85;;
24151;SDS011;12311;50.866;4.332;2022-12-16T05:53:42;19.33;;;7.55;;
24151;SDS011;12311;50.866;4.332;2022-12-16T05:56:26;13.55;;;6.70;;
24151;SDS011;12311;50.866;4.332;2022-12-16T05:59:10;12.45;;;6.70;;
24151;SDS011;12311;50.866;4.332;2022-12-16T06:01:54;8.57;;;4.93;;
24151;SDS011;12311;50.866;4.332;2022-12-16T06:04:38;11.65;;;5.32;;
24151;SDS011;12311;50.866;4.332;2022-12-16T06:07:22;11.25;;;5.70;;
24151;SDS011;12311;50.866;4.332;2022-12-16T06:10:06;14.25;;;7.25;;
24151;SDS011;12311;50.866;4.332;2022-12-16T06:12:50;11.02;;;6.30;;
24151;SDS011;12311;50.866;4.332;2022-12-16T06:15:34;16.15;;;7.10;;
24151;SDS011;12311;50.866;4.332;2022-12-16T06:18:18;6.60;;;4.78;;
24151;SDS011;12311;50.866;4.332;2022-12-16T06:21:02;15.73;;;6.88;;
24151;SDS011;12311;50.866;4.332;2022-12-16T06:23:46;18.90;;;7.75;;
24151;SDS011;12311;50.866;4.332;2022-12-16T06:26:30;6.43;;;4.15;;
24151;SDS011;12311;50.866;4.332;2022-12-16T06:29:14;10.52;;;5.55;;
24151;SDS011;12311;50.866;4.332;2022-12-16T06:31:58;14.48;;;5.78;;
24151;SDS011;12311;50.866;4.332;2022-12-16T06:35:02;7.60;;;4.70;;
24151;SDS011;12311;50.866;4.332;2022-12-16T06:37:47;7.93;;;5.13;;
24151;SDS011;12311;50.866;4.332;2022-12-16T06:40:31;10.30;;;5.03;;
24151;SDS011;12311;50.866;4.332;2022-12-16T06:43:16;13.13;;;6.57;;
24151;SDS011;12311;50.866;4.332;2022-12-16T06:46:00;12.73;;;5.85;;
24151;SDS011;12311;50.866;4.332;2022-12-16T06:48:44;13.95;;;4.82;;
24151;SDS011;12311;50.866;4.332;2022-12-16T06:51:28;24.17;;;7.88;;
24151;SDS011;12311;50.866;4.332;2022-12-16T06:54:12;11.82;;;5.43;;
24151;SDS011;12311;50.866;4.332;2022-12-16T06:56:56;11.30;;;5.88;;
24151;SDS011;12311;50.866;4.332;2022-12-16T06:59:40;8.88;;;5.18;;
24151;SDS011;12311;50.866;4.332;2022-12-16T07:02:24;16.90;;;6.43;;
24151;SDS011;12311;50.866;4.332;2022-12-16T07:05:08;13.82;;;5.57;;
24151;SDS011;12311;50.866;4.332;2022-12-16T07:07:52;17.92;;;5.95;;
24151;SDS011;12311;50.866;4.332;2022-12-16T07:10:36;8.75;;;5.10;;
24151;SDS011;12311;50.866;4.332;2022-12-16T07:13:21;16.88;;;6.15;;
24151;SDS011;12311;50.866;4.332;2022-12-16T07:16:05;5.65;;;4.10;;
24151;SDS011;12311;50.866;4.332;2022-12-16T07:18:49;13.27;;;5.43;;
24151;SDS011;12311;50.866;4.332;2022-12-16T07:21:33;11.15;;;6.78;;
24151;SDS011;12311;50.866;4.332;2022-12-16T07:24:17;12.48;;;5.75;;
24151;SDS011;12311;50.866;4.332;2022-12-16T07:27:01;7.57;;;4.47;;
24151;SDS011;12311;50.866;4.332;2022-12-16T07:29:45;13.10;;;5.38;;
24151;SDS011;12311;50.866;4.332;2022-12-16T07:32:29;13.75;;;6.70;;
24151;SDS011;12311;50.866;4.332;2022-12-16T07:35:13;8.73;;;4.95;;
24151;SDS011;12311;50.866;4.332;2022-12-16T07:37:57;12.07;;;6.97;;
24151;SDS011;12311;50.866;4.332;2022-12-16T07:40:42;5.35;;;3.05;;
24151;SDS011;12311;50.866;4.332;2022-12-16T07:43:25;7.75;;;4.18;;
24151;SDS011;12311;50.866;4.332;2022-12-16T07:46:10;11.85;;;4.80;;
24151;SDS011;12311;50.866;4.332;2022-12-16T07:48:54;8.57;;;4.30;;
24151;SDS011;12311;50.866;4.332;2022-12-16T07:51:38;9.82;;;4.82;;
24151;SDS011;12311;50.866;4.332;2022-12-16T07:54:21;6.95;;;5.07;;
24151;SDS011;12311;50.866;4.332;2022-12-16T07:57:05;9.70;;;4.43;;
24151;SDS011;12311;50.866;4.332;2022-12-16T07:59:49;9.65;;;4.93;;
24151;SDS011;12311;50.866;4.332;2022-12-16T08:02:33;11.50;;;4.38;;
24151;SDS011;12311;50.866;4.332;2022-12-16T08:05:17;6.95;;;3.88;;
24151;SDS011;12311;50.866;4.332;2022-12-16T08:08:01;8.88;;;4.50;;
24151;SDS011;12311;50.866;4.332;2022-12-16T08:10:45;11.63;;;5.60;;
24151;SDS011;12311;50.866;4.332;2022-12-16T08:13:29;8.32;;;3.60;;
24151;SDS011;12311;50.866;4.332;2022-12-16T08:16:13;7.60;;;4.75;;
24151;SDS011;12311;50.866;4.332;2022-12-16T08:18:57;16.33;;;5.75;;
24151;SDS011;12311;50.866;4.332;2022-12-16T08:21:41;7.40;;;4.38;;
24151;SDS011;12311;50.866;4.332;2022-12-16T08:24:25;11.55;;;5.88;;
24151;SDS011;12311;50.866;4.332;2022-12-16T08:27:14;9.05;;;4.05;;
24151;SDS011;12311;50.866;4.332;2022-12-16T08:29:58;12.90;;;5.68;;
24151;SDS011;12311;50.866;4.332;2022-12-16T08:32:42;13.93;;;5.78;;
24151;SDS011;12311;50.866;4.332;2022-12-16T08:35:26;9.15;;;4.00;;
24151;SDS011;12311;50.866;4.332;2022-12-16T08:38:10;7.90;;;4.22;;
24151;SDS011;12311;50.866;4.332;2022-12-16T08:40:54;14.43;;;4.95;;
24151;SDS011;12311;50.866;4.332;2022-12-16T08:43:38;17.60;;;5.07;;
24151;SDS011;12311;50.866;4.332;2022-12-16T08:46:23;16.48;;;7.00;;
24151;SDS011;12311;50.866;4.332;2022-12-16T08:49:07;10.85;;;5.20;;
24151;SDS011;12311;50.866;4.332;2022-12-16T08:51:52;10.30;;;5.35;;
24151;SDS011;12311;50.866;4.332;2022-12-16T08:54:56;10.18;;;5.97;;
24151;SDS011;12311;50.866;4.332;2022-12-16T08:57:39;21.77;;;6.55;;
24151;SDS011;12311;50.866;4.332;2022-12-16T09:00:23;10.60;;;4.78;;
24151;SDS011;12311;50.866;4.332;2022-12-16T09:03:07;16.85;;;6.72;;
24151;SDS011;12311;50.866;4.332;2022-12-16T09:05:56;9.88;;;5.80;;
24151;SDS011;12311;50.866;4.332;2022-12-16T09:08:41;11.35;;;5.85;;
24151;SDS011;12311;50.866;4.332;2022-12-16T09:11:25;15.93;;;5.93;;
24151;SDS011;12311;50.866;4.332;2022-12-16T09:14:09;11.43;;;5.57;;
24151;SDS011;12311;50.866;4.332;2022-12-16T09:16:53;15.05;;;6.68;;
24151;SDS011;12311;50.866;4.332;2022-12-16T09:19:37;17.00;;;5.60;;
24151;SDS011;12311;50.866;4.332;2022-12-16T09:22:21;13.25;;;5.43;;
24151;SDS011;12311;50.866;4.332;2022-12-16T09:25:05;16.15;;;6.40;;
24151;SDS011;12311;50.866;4.332;2022-12-16T09:27:49;18.20;;;6.93;;
24151;SDS011;12311;50.866;4.332;2022-12-16T09:30:33;13.45;;;7.75;;
24151;SDS011;12311;50.866;4.332;2022-12-16T09:33:18;20.63;;;8.77;;
24151;SDS011;12311;50.866;4.332;2022-12-16T09:36:02;16.25;;;6.10;;
24151;SDS011;12311;50.866;4.332;2022-12-16T09:38:46;15.65;;;5.60;;
24151;SDS011;12311;50.866;4.332;2022-12-16T09:41:43;17.00;;;7.28;;
24151;SDS011;12311;50.866;4.332;2022-12-16T09:48:03;16.33;;;5.82;;
24151;SDS011;12311;50.866;4.332;2022-12-16T09:50:56;24.02;;;6.53;;
24151;SDS011;12311;50.866;4.332;2022-12-16T09:53:44;23.58;;;6.53;;
24151;SDS011;12311;50.866;4.332;2022-12-16T09:56:32;20.55;;;7.25;;
24151;SDS011;12311;50.866;4.332;2022-12-16T09:59:20;11.77;;;5.28;;
24151;SDS011;12311;50.866;4.332;2022-12-16T10:02:10;10.77;;;5.00;;
24151;SDS011;12311;50.866;4.332;2022-12-16T10:05:12;16.27;;;6.60;;
24151;SDS011;12311;50.866;4.332;2022-12-16T10:08:13;24.58;;;6.68;;
24151;SDS011;12311;50.866;4.332;2022-12-16T10:11:07;13.95;;;7.15;;
24151;SDS011;12311;50.866;4.332;2022-12-16T10:14:18;9.93;;;5.27;;
24151;SDS011;12311;50.866;4.332;2022-12-16T10:23:15;13.15;;;6.03;;
24151;SDS011;12311;50.866;4.332;2022-12-16T10:26:22;9.65;;;6.57;;
24151;SDS011;12311;50.866;4.332;2022-12-16T10:29:25;17.08;;;6.68;;
24151;SDS011;12311;50.866;4.332;2022-12-16T10:32:14;17.45;;;7.03;;
24151;SDS011;12311;50.866;4.332;2022-12-16T10:35:02;13.90;;;5.75;;
24151;SDS011;12311;50.866;4.332;2022-12-16T10:38:20;15.48;;;5.90;;
24151;SDS011;12311;50.866;4.332;2022-12-16T10:41:20;15.55;;;6.22;;
24151;SDS011;12311;50.866;4.332;2022-12-16T10:44:15;20.92;;;8.88;;
24151;SDS011;12311;50.866;4.332;2022-12-16T10:47:14;17.13;;;6.40;;
24151;SDS011;12311;50.866;4.332;2022-12-16T10:49:58;10.52;;;5.53;;
24151;SDS011;12311;50.866;4.332;2022-12-16T10:52:49;18.70;;;5.97;;
24151;SDS011;12311;50.866;4.332;2022-12-16T10:55:48;18.98;;;6.20;;
24151;SDS011;12311;50.866;4.332;2022-12-16T10:59:03;17.25;;;7.30;;
24151;SDS011;12311;50.866;4.332;2022-12-16T11:08:21;19.55;;;7.35;;
24151;SDS011;12311;50.866;4.332;2022-12-16T11:17:18;18.13;;;7.05;;
24151;SDS011;12311;50.866;4.332;2022-12-16T11:20:19;19.33;;;8.15;;
24151;SDS011;12311;50.866;4.332;2022-12-16T11:26:07;17.20;;;7.25;;
24151;SDS011;12311;50.866;4.332;2022-12-16T11:32:33;18.75;;;6.95;;
24151;SDS011;12311;50.866;4.332;2022-12-16T11:35:12;18.52;;;7.18;;
24151;SDS011;12311;50.866;4.332;2022-12-16T11:38:00;17.63;;;7.63;;
24151;SDS011;12311;50.866;4.332;2022-12-16T11:40:47;16.42;;;6.05;;
24151;SDS011;12311;50.866;4.332;2022-12-16T11:43:32;15.93;;;5.60;;
24151;SDS011;12311;50.866;4.332;2022-12-16T11:46:26;20.88;;;6.72;;
24151;SDS011;12311;50.866;4.332;2022-12-16T11:49:16;18.30;;;7.32;;
24151;SDS011;12311;50.866;4.332;2022-12-16T11:52:14;15.02;;;5.93;;
24151;SDS011;12311;50.866;4.332;2022-12-16T11:55:15;8.85;;;4.30;;
24151;SDS011;12311;50.866;4.332;2022-12-16T12:01:27;14.18;;;5.45;;
24151;SDS011;12311;50.866;4.332;2022-12-16T12:04:30;13.60;;;6.32;;
24151;SDS011;12311;50.866;4.332;2022-12-16T12:22:46;22.27;;;7.07;;
24151;SDS011;12311;50.866;4.332;2022-12-16T12:25:40;17.13;;;5.93;;
24151;SDS011;12311;50.866;4.332;2022-12-16T12:58:48;13.90;;;5.00;;
24151;SDS011;12311;50.866;4.332;2022-12-16T13:01:38;8.38;;;4.10;;
24151;SDS011;12311;50.866;4.332;2022-12-16T13:04:25;10.35;;;4.03;;
24151;SDS011;12311;50.866;4.332;2022-12-16T13:07:11;10.55;;;3.67;;
24151;SDS011;12311;50.866;4.332;2022-12-16T13:10:13;15.80;;;5.25;;
24151;SDS011;12311;50.866;4.332;2022-12-16T13:13:49;22.02;;;6.45;;
24151;SDS011;12311;50.866;4.332;2022-12-16T13:16:11;9.10;;;3.75;;
24151;SDS011;12311;50.866;4.332;2022-12-16T13:22:31;9.27;;;4.65;;
24151;SDS011;12311;50.866;4.332;2022-12-16T13:25:41;7.50;;;3.65;;
24151;SDS011;12311;50.866;4.332;2022-12-16T13:28:34;5.35;;;3.15;;
24151;SDS011;12311;50.866;4.332;2022-12-16T13:31:23;9.82;;;4.25;;
24151;SDS011;12311;50.866;4.332;2022-12-16T13:36:56;8.48;;;3.58;;
24151;SDS011;12311;50.866;4.332;2022-12-16T13:39:42;8.00;;;3.75;;
24151;SDS011;12311;50.866;4.332;2022-12-16T13:45:31;7.70;;;3.75;;
24151;SDS011;12311;50.866;4.332;2022-12-16T13:48:39;7.22;;;3.63;;
24151;SDS011;12311;50.866;4.332;2022-12-16T13:54:38;22.50;;;4.90;;
24151;SDS011;12311;50.866;4.332;2022-12-16T13:57:27;8.82;;;4.28;;
24151;SDS011;12311;50.866;4.332;2022-12-16T14:00:16;10.05;;;4.75;;
24151;SDS011;12311;50.866;4.332;2022-12-16T14:03:03;6.60;;;4.05;;
24151;SDS011;12311;50.866;4.332;2022-12-16T14:06:16;9.90;;;3.72;;
24151;SDS011;12311;50.866;4.332;2022-12-16T14:09:05;6.07;;;3.15;;
24151;SDS011;12311;50.866;4.332;2022-12-16T14:14:47;16.85;;;3.53;;
24151;SDS011;12311;50.866;4.332;2022-12-16T14:17:37;5.65;;;3.35;;
24151;SDS011;12311;50.866;4.332;2022-12-16T14:20:30;8.50;;;3.30;;
24151;SDS011;12311;50.866;4.332;2022-12-16T14:23:28;9.55;;;3.88;;
24151;SDS011;12311;50.866;4.332;2022-12-16T14:26:15;5.20;;;3.47;;
24151;SDS011;12311;50.866;4.332;2022-12-16T14:29:00;10.48;;;4.53;;
24151;SDS011;12311;50.866;4.332;2022-12-16T14:31:54;14.98;;;3.85;;
24151;SDS011;12311;50.866;4.332;2022-12-16T14:34:37;6.57;;;3.00;;
24151;SDS011;12311;50.866;4.332;2022-12-16T14:37:22;9.70;;;3.70;;
24151;SDS011;12311;50.866;4.332;2022-12-16T14:40:23;7.97;;;3.35;;
24151;SDS011;12311;50.866;4.332;2022-12-16T14:43:23;5.15;;;3.38;;
24151;SDS011;12311;50.866;4.332;2022-12-16T14:52:41;6.45;;;3.58;;
24151;SDS011;12311;50.866;4.332;2022-12-16T14:55:27;5.38;;;2.58;;
24151;SDS011;12311;50.866;4.332;2022-12-16T14:58:17;6.95;;;3.20;;
24151;SDS011;12311;50.866;4.332;2022-12-16T15:01:24;7.57;;;3.40;;
24151;SDS011;12311;50.866;4.332;2022-12-16T15:07:19;8.07;;;3.13;;
24151;SDS011;12311;50.866;4.332;2022-12-16T15:10:03;10.18;;;4.28;;
24151;SDS011;12311;50.866;4.332;2022-12-16T15:12:48;8.45;;;3.90;;
24151;SDS011;12311;50.866;4.332;2022-12-16T15:15:34;14.50;;;4.07;;
24151;SDS011;12311;50.866;4.332;2022-12-16T15:18:25;12.95;;;4.90;;
24151;SDS011;12311;50.866;4.332;2022-12-16T15:21:14;9.95;;;3.97;;
24151;SDS011;12311;50.866;4.332;2022-12-16T15:23:59;9.10;;;4.03;;
24151;SDS011;12311;50.866;4.332;2022-12-16T15:26:43;6.85;;;4.47;;
24151;SDS011;12311;50.866;4.332;2022-12-16T15:35:09;9.65;;;5.60;;
24151;SDS011;12311;50.866;4.332;2022-12-16T15:38:10;12.77;;;6.15;;
24151;SDS011;12311;50.866;4.332;2022-12-16T15:40:57;12.57;;;5.40;;
24151;SDS011;12311;50.866;4.332;2022-12-16T15:43:43;12.05;;;5.90;;
24151;SDS011;12311;50.866;4.332;2022-12-16T15:46:28;24.10;;;7.70;;
24151;SDS011;12311;50.866;4.332;2022-12-16T15:49:25;17.05;;;7.32;;
24151;SDS011;12311;50.866;4.332;2022-12-16T16:01:10;19.52;;;5.20;;
24151;SDS011;12311;50.866;4.332;2022-12-16T16:03:57;6.97;;;4.38;;
24151;SDS011;12311;50.866;4.332;2022-12-16T16:06:46;12.98;;;6.22;;
24151;SDS011;12311;50.866;4.332;2022-12-16T16:09:32;12.75;;;7.18;;
24151;SDS011;12311;50.866;4.332;2022-12-16T16:12:19;13.18;;;6.50;;
24151;SDS011;12311;50.866;4.332;2022-12-16T16:15:04;10.15;;;6.05;;
24151;SDS011;12311;50.866;4.332;2022-12-16T16:17:55;13.38;;;5.78;;
24151;SDS011;12311;50.866;4.332;2022-12-16T16:20:45;10.65;;;5.75;;
24151;SDS011;12311;50.866;4.332;2022-12-16T16:23:29;13.10;;;6.80;;
24151;SDS011;12311;50.866;4.332;2022-12-16T16:26:14;9.32;;;5.18;;
24151;SDS011;12311;50.866;4.332;2022-12-16T16:29:01;14.43;;;5.32;;
24151;SDS011;12311;50.866;4.332;2022-12-16T16:31:45;10.65;;;5.80;;
24151;SDS011;12311;50.866;4.332;2022-12-16T16:34:30;13.93;;;6.18;;
24151;SDS011;12311;50.866;4.332;2022-12-16T16:37:15;13.25;;;5.85;;
24151;SDS011;12311;50.866;4.332;2022-12-16T16:40:01;18.52;;;5.68;;
24151;SDS011;12311;50.866;4.332;2022-12-16T16:42:57;14.50;;;6.53;;
24151;SDS011;12311;50.866;4.332;2022-12-16T16:45:41;16.33;;;6.03;;
24151;SDS011;12311;50.866;4.332;2022-12-16T16:48:25;13.10;;;6.82;;
24151;SDS011;12311;50.866;4.332;2022-12-16T16:51:11;11.50;;;5.88;;
24151;SDS011;12311;50.866;4.332;2022-12-16T16:53:55;13.77;;;5.28;;
24151;SDS011;12311;50.866;4.332;2022-12-16T16:56:39;14.15;;;6.43;;
24151;SDS011;12311;50.866;4.332;2022-12-16T16:59:23;11.50;;;6.05;;
24151;SDS011;12311;50.866;4.332;2022-12-16T17:02:17;17.33;;;7.57;;
24151;SDS011;12311;50.866;4.332;2022-12-16T17:05:03;13.43;;;7.47;;
24151;SDS011;12311;50.866;4.332;2022-12-16T17:07:47;15.68;;;8.50;;
24151;SDS011;12311;50.866;4.332;2022-12-16T17:10:31;16.27;;;7.45;;
24151;SDS011;12311;50.866;4.332;2022-12-16T17:13:15;19.60;;;6.68;;
24151;SDS011;12311;50.866;4.332;2022-12-16T17:15:59;16.92;;;7.13;;
24151;SDS011;12311;50.866;4.332;2022-12-16T17:18:44;16.20;;;7.57;;
24151;SDS011;12311;50.866;4.332;2022-12-16T17:21:28;17.00;;;9.70;;
24151;SDS011;12311;50.866;4.332;2022-12-16T17:24:11;16.23;;;8.75;;
24151;SDS011;12311;50.866;4.332;2022-12-16T17:26:56;23.30;;;8.77;;
24151;SDS011;12311;50.866;4.332;2022-12-16T17:29:39;20.25;;;9.15;;
24151;SDS011;12311;50.866;4.332;2022-12-16T17:32:23;25.10;;;9.98;;
24151;SDS011;12311;50.866;4.332;2022-12-16T17:35:09;18.70;;;9.35;;
24151;SDS011;12311;50.866;4.332;2022-12-16T17:37:54;24.23;;;9.43;;
24151;SDS011;12311;50.866;4.332;2022-12-16T17:40:38;18.63;;;8.90;;
24151;SDS011;12311;50.866;4.332;2022-12-16T17:43:22;29.00;;;14.02;;
24151;SDS011;12311;50.866;4.332;2022-12-16T17:46:08;26.00;;;11.70;;
24151;SDS011;12311;50.866;4.332;2022-12-16T17:48:54;15.98;;;9.70;;
24151;SDS011;12311;50.866;4.332;2022-12-16T17:51:47;32.65;;;12.23;;
24151;SDS011;12311;50.866;4.332;2022-12-16T17:54:32;20.20;;;10.00;;
24151;SDS011;12311;50.866;4.332;2022-12-16T17:57:16;21.67;;;9.35;;
24151;SDS011;12311;50.866;4.332;2022-12-16T18:00:00;25.48;;;11.00;;
24151;SDS011;12311;50.866;4.332;2022-12-16T18:02:44;27.33;;;11.15;;
24151;SDS011;12311;50.866;4.332;2022-12-16T18:05:28;26.08;;;10.65;;
24151;SDS011;12311;50.866;4.332;2022-12-16T18:08:12;26.80;;;10.60;;
24151;SDS011;12311;50.866;4.332;2022-12-16T18:10:57;18.45;;;8.43;;
24151;SDS011;12311;50.866;4.332;2022-12-16T18:13:41;23.20;;;9.65;;
24151;SDS011;12311;50.866;4.332;2022-12-16T18:16:26;20.17;;;8.98;;
24151;SDS011;12311;50.866;4.332;2022-12-16T18:19:11;22.33;;;8.38;;
24151;SDS011;12311;50.866;4.332;2022-12-16T18:21:56;26.98;;;11.30;;
24151;SDS011;12311;50.866;4.332;2022-12-16T18:24:40;21.10;;;9.68;;
24151;SDS011;12311;50.866;4.332;2022-12-16T18:27:24;24.27;;;13.43;;
24151;SDS011;12311;50.866;4.332;2022-12-16T18:30:08;21.98;;;10.57;;
24151;SDS011;12311;50.866;4.332;2022-12-16T18:32:53;21.95;;;9.90;;
24151;SDS011;12311;50.866;4.332;2022-12-16T18:35:37;24.65;;;10.68;;
24151;SDS011;12311;50.866;4.332;2022-12-16T18:38:21;31.88;;;14.05;;
24151;SDS011;12311;50.866;4.332;2022-12-16T18:41:11;22.83;;;11.98;;
24151;SDS011;12311;50.866;4.332;2022-12-16T18:44:02;28.27;;;11.38;;
24151;SDS011;12311;50.866;4.332;2022-12-16T18:46:47;23.55;;;9.98;;